sensor_id;sensor_type;location;lat;lon;timestamp;pressure;altitude;pressure_sealevel;temperature;humidity
57644;BME280;43474;46.510;6.686;2024-01-16T00:01:42;95815.91;;;0.89;84.53
57644;BME280;43474;46.510;6.686;2024-01-16T00:04:08;95834.63;;;0.99;86.74
57644;BME280;43474;46.510;6.686;2024-01-16T00:06:38;95781.63;;;0.64;87.50
57644;BME280;43474;46.510;6.686;2024-01-16T00:09:04;95793.16;;;0.76;86.87
57644;BME280;43474;46.510;6.686;2024-01-16T00:11:31;95845.94;;;1.06;88.14
57644;BME280;43474;46.510;6.686;2024-01-16T00:13:56;95797.56;;;0.75;87.82
57644;BME280;43474;46.510;6.686;2024-01-16T00:16:22;95799.75;;;0.72;87.33
57644;BME280;43474;46.510;6.686;2024-01-16T00:18:48;95840.47;;;1.01;89.39
57644;BME280;43474;46.510;6.686;2024-01-16T00:21:14;95837.81;;;0.94;88.52
57644;BME280;43474;46.510;6.686;2024-01-16T00:23:39;95802.03;;;0.82;89.06
57644;BME280;43474;46.510;6.686;2024-01-16T00:26:05;95841.66;;;0.98;87.70
57644;BME280;43474;46.510;6.686;2024-01-16T00:28:31;95818.91;;;0.86;89.61
57644;BME280;43474;46.510;6.686;2024-01-16T00:30:58;95810.53;;;0.97;89.25
57644;BME280;43474;46.510;6.686;2024-01-16T00:33:23;95775.91;;;0.75;89.72
57644;BME280;43474;46.510;6.686;2024-01-16T00:35:49;95849.00;;;1.16;88.51
57644;BME280;43474;46.510;6.686;2024-01-16T00:38:15;95846.66;;;1.28;91.61
57644;BME280;43474;46.510;6.686;2024-01-16T00:40:41;95824.88;;;1.14;89.53
57644;BME280;43474;46.510;6.686;2024-01-16T00:43:06;95810.53;;;0.97;90.58
57644;BME280;43474;46.510;6.686;2024-01-16T00:45:32;95784.47;;;0.97;89.06
57644;BME280;43474;46.510;6.686;2024-01-16T00:47:58;95805.28;;;0.90;89.07
57644;BME280;43474;46.510;6.686;2024-01-16T00:50:24;95828.13;;;1.16;86.75
57644;BME280;43474;46.510;6.686;2024-01-16T00:52:50;95813.75;;;0.99;87.94
57644;BME280;43474;46.510;6.686;2024-01-16T00:55:16;95842.78;;;1.17;85.07
57644;BME280;43474;46.510;6.686;2024-01-16T00:57:41;95836.22;;;1.28;84.93
57644;BME280;43474;46.510;6.686;2024-01-16T01:00:08;95805.13;;;0.98;87.58
57644;BME280;43474;46.510;6.686;2024-01-16T01:02:35;95841.25;;;1.29;87.89
57644;BME280;43474;46.510;6.686;2024-01-16T01:05:01;95810.50;;;0.90;88.70
57644;BME280;43474;46.510;6.686;2024-01-16T01:07:27;95851.38;;;1.11;90.60
57644;BME280;43474;46.510;6.686;2024-01-16T01:09:53;95807.56;;;1.00;91.77
57644;BME280;43474;46.510;6.686;2024-01-16T01:12:18;95831.97;;;1.20;91.85
57644;BME280;43474;46.510;6.686;2024-01-16T01:14:44;95804.63;;;1.10;89.70
57644;BME280;43474;46.510;6.686;2024-01-16T01:17:10;95806.16;;;1.04;88.45
57644;BME280;43474;46.510;6.686;2024-01-16T01:19:35;95845.19;;;1.19;90.31
57644;BME280;43474;46.510;6.686;2024-01-16T01:22:01;95855.47;;;1.20;92.46
57644;BME280;43474;46.510;6.686;2024-01-16T01:24:27;95818.81;;;1.00;91.37
57644;BME280;43474;46.510;6.686;2024-01-16T01:26:53;95816.19;;;1.00;93.20
57644;BME280;43474;46.510;6.686;2024-01-16T01:29:18;95823.28;;;1.13;93.35
57644;BME280;43474;46.510;6.686;2024-01-16T01:31:47;95816.78;;;1.02;92.58
57644;BME280;43474;46.510;6.686;2024-01-16T01:34:13;95791.59;;;0.82;93.27
57644;BME280;43474;46.510;6.686;2024-01-16T01:36:39;95837.91;;;1.08;96.17
57644;BME280;43474;46.510;6.686;2024-01-16T01:39:06;95816.13;;;0.94;95.59
57644;BME280;43474;46.510;6.686;2024-01-16T01:41:32;95815.78;;;1.03;98.08
57644;BME280;43474;46.510;6.686;2024-01-16T01:43:59;95851.50;;;1.03;95.84
57644;BME280;43474;46.510;6.686;2024-01-16T01:46:25;95821.50;;;0.86;97.14
57644;BME280;43474;46.510;6.686;2024-01-16T01:48:51;95797.28;;;0.64;98.79
57644;BME280;43474;46.510;6.686;2024-01-16T01:51:19;95853.81;;;0.85;99.11
57644;BME280;43474;46.510;6.686;2024-01-16T01:53:48;95835.28;;;0.80;99.29
57644;BME280;43474;46.510;6.686;2024-01-16T01:56:17;95812.03;;;0.78;99.30
57644;BME280;43474;46.510;6.686;2024-01-16T01:58:46;95846.16;;;1.11;99.54
57644;BME280;43474;46.510;6.686;2024-01-16T02:01:14;95868.63;;;1.12;99.30
57644;BME280;43474;46.510;6.686;2024-01-16T02:03:42;95827.88;;;0.76;99.00
57644;BME280;43474;46.510;6.686;2024-01-16T02:06:09;95854.84;;;0.90;100.00
57644;BME280;43474;46.510;6.686;2024-01-16T02:08:35;95843.28;;;0.71;99.18
57644;BME280;43474;46.510;6.686;2024-01-16T02:11:01;95809.03;;;0.53;99.61
57644;BME280;43474;46.510;6.686;2024-01-16T02:13:28;95857.06;;;0.93;100.00
57644;BME280;43474;46.510;6.686;2024-01-16T02:15:56;95862.94;;;0.74;100.00
57644;BME280;43474;46.510;6.686;2024-01-16T02:18:22;95811.84;;;0.51;99.22
57644;BME280;43474;46.510;6.686;2024-01-16T02:20:49;95864.06;;;0.86;99.71
57644;BME280;43474;46.510;6.686;2024-01-16T02:23:27;95792.91;;;0.43;99.46
57644;BME280;43474;46.510;6.686;2024-01-16T02:25:53;95847.72;;;0.77;99.31
57644;BME280;43474;46.510;6.686;2024-01-16T02:28:20;95811.34;;;0.41;99.45
57644;BME280;43474;46.510;6.686;2024-01-16T02:30:45;95821.94;;;0.61;100.00
57644;BME280;43474;46.510;6.686;2024-01-16T02:33:12;95821.69;;;0.56;100.00
57644;BME280;43474;46.510;6.686;2024-01-16T02:35:37;95778.41;;;0.34;100.00
57644;BME280;43474;46.510;6.686;2024-01-16T02:38:03;95815.91;;;0.61;98.97
57644;BME280;43474;46.510;6.686;2024-01-16T02:40:29;95848.00;;;0.61;100.00
57644;BME280;43474;46.510;6.686;2024-01-16T02:42:56;95840.47;;;0.45;100.00
57644;BME280;43474;46.510;6.686;2024-01-16T02:45:23;95806.78;;;0.22;100.00
57644;BME280;43474;46.510;6.686;2024-01-16T02:47:49;95821.94;;;0.40;100.00
57644;BME280;43474;46.510;6.686;2024-01-16T02:50:15;95800.25;;;0.33;100.00
57644;BME280;43474;46.510;6.686;2024-01-16T02:52:41;95808.66;;;0.35;100.00
57644;BME280;43474;46.510;6.686;2024-01-16T02:55:07;95840.47;;;0.45;100.00
57644;BME280;43474;46.510;6.686;2024-01-16T02:57:33;95806.84;;;0.07;100.00
57644;BME280;43474;46.510;6.686;2024-01-16T02:59:59;95833.69;;;0.29;100.00
57644;BME280;43474;46.510;6.686;2024-01-16T03:02:25;95799.47;;;0.11;100.00
57644;BME280;43474;46.510;6.686;2024-01-16T03:04:50;95765.59;;;-0.11;100.00
57644;BME280;43474;46.510;6.686;2024-01-16T03:07:16;95822.41;;;0.22;100.00
57644;BME280;43474;46.510;6.686;2024-01-16T03:09:42;95788.81;;;-0.31;99.71
57644;BME280;43474;46.510;6.686;2024-01-16T03:12:08;95847.22;;;0.18;100.00
57644;BME280;43474;46.510;6.686;2024-01-16T03:14:33;95820.09;;;0.12;100.00
57644;BME280;43474;46.510;6.686;2024-01-16T03:17:02;95844.75;;;0.31;99.44
57644;BME280;43474;46.510;6.686;2024-01-16T03:19:28;95799.25;;;0.12;99.60
57644;BME280;43474;46.510;6.686;2024-01-16T03:21:54;95808.00;;;0.26;99.68
57644;BME280;43474;46.510;6.686;2024-01-16T03:24:20;95834.28;;;0.52;98.46
57644;BME280;43474;46.510;6.686;2024-01-16T03:26:46;95799.44;;;0.32;99.91
57644;BME280;43474;46.510;6.686;2024-01-16T03:29:12;95799.50;;;0.39;99.08
57644;BME280;43474;46.510;6.686;2024-01-16T03:31:37;95788.09;;;0.18;98.06
57644;BME280;43474;46.510;6.686;2024-01-16T03:34:03;95771.47;;;0.19;99.81
57644;BME280;43474;46.510;6.686;2024-01-16T03:36:29;95769.34;;;0.30;99.69
57644;BME280;43474;46.510;6.686;2024-01-16T03:38:55;95795.72;;;0.41;99.53
57644;BME280;43474;46.510;6.686;2024-01-16T03:41:20;95800.16;;;0.47;99.97
57644;BME280;43474;46.510;6.686;2024-01-16T03:43:46;95814.44;;;0.51;100.00
57644;BME280;43474;46.510;6.686;2024-01-16T03:46:12;95790.94;;;0.45;100.00
57644;BME280;43474;46.510;6.686;2024-01-16T03:48:38;95824.63;;;0.74;99.20
57644;BME280;43474;46.510;6.686;2024-01-16T03:51:05;95805.72;;;0.66;99.21
57644;BME280;43474;46.510;6.686;2024-01-16T03:53:32;95820.03;;;0.76;100.00
57644;BME280;43474;46.510;6.686;2024-01-16T03:55:58;95837.81;;;0.94;98.81
57644;BME280;43474;46.510;6.686;2024-01-16T03:58:24;95765.72;;;0.52;99.96
57644;BME280;43474;46.510;6.686;2024-01-16T04:00:49;95814.06;;;0.83;99.86
57644;BME280;43474;46.510;6.686;2024-01-16T04:03:16;95784.06;;;0.65;99.08
57644;BME280;43474;46.510;6.686;2024-01-16T04:05:42;95817.47;;;0.83;100.00
57644;BME280;43474;46.510;6.686;2024-01-16T04:08:08;95790.00;;;0.81;100.00
57644;BME280;43474;46.510;6.686;2024-01-16T04:10:34;95816.63;;;0.76;100.00
57644;BME280;43474;46.510;6.686;2024-01-16T04:13:01;95783.72;;;0.75;99.73
57644;BME280;43474;46.510;6.686;2024-01-16T04:15:27;95807.38;;;1.01;100.00
57644;BME280;43474;46.510;6.686;2024-01-16T04:17:54;95784.13;;;0.78;99.90
57644;BME280;43474;46.510;6.686;2024-01-16T04:20:20;95745.28;;;0.56;98.95
57644;BME280;43474;46.510;6.686;2024-01-16T04:22:46;95765.63;;;0.67;97.89
57644;BME280;43474;46.510;6.686;2024-01-16T04:25:12;95790.72;;;0.74;99.44
57644;BME280;43474;46.510;6.686;2024-01-16T04:27:38;95795.34;;;0.72;99.22
57644;BME280;43474;46.510;6.686;2024-01-16T04:30:05;95781.69;;;0.70;99.40
57644;BME280;43474;46.510;6.686;2024-01-16T04:32:30;95736.38;;;0.43;98.39
57644;BME280;43474;46.510;6.686;2024-01-16T04:34:56;95762.91;;;0.54;98.40
57644;BME280;43474;46.510;6.686;2024-01-16T04:37:22;95739.50;;;0.32;100.00
57644;BME280;43474;46.510;6.686;2024-01-16T04:39:48;95780.53;;;0.80;99.21
57644;BME280;43474;46.510;6.686;2024-01-16T04:42:13;95797.19;;;0.78;97.64
57644;BME280;43474;46.510;6.686;2024-01-16T04:44:39;95769.81;;;0.68;98.82
57644;BME280;43474;46.510;6.686;2024-01-16T04:47:05;95747.72;;;0.64;98.99
57644;BME280;43474;46.510;6.686;2024-01-16T04:49:31;95741.41;;;0.45;100.00
57644;BME280;43474;46.510;6.686;2024-01-16T04:51:56;95781.81;;;0.62;100.00
57644;BME280;43474;46.510;6.686;2024-01-16T04:54:22;95750.88;;;0.52;100.00
57644;BME280;43474;46.510;6.686;2024-01-16T04:56:48;95745.00;;;0.44;99.69
57644;BME280;43474;46.510;6.686;2024-01-16T04:59:13;95775.91;;;0.75;100.00
57644;BME280;43474;46.510;6.686;2024-01-16T05:01:39;95769.47;;;0.71;100.00
57644;BME280;43474;46.510;6.686;2024-01-16T05:04:05;95761.97;;;0.61;100.00
57644;BME280;43474;46.510;6.686;2024-01-16T05:06:33;95776.09;;;0.73;100.00
57644;BME280;43474;46.510;6.686;2024-01-16T05:08:59;95783.75;;;0.54;100.00
57644;BME280;43474;46.510;6.686;2024-01-16T05:11:24;95779.91;;;0.49;100.00
57644;BME280;43474;46.510;6.686;2024-01-16T05:13:50;95735.22;;;0.24;100.00
57644;BME280;43474;46.510;6.686;2024-01-16T05:16:26;95789.03;;;0.60;100.00
57644;BME280;43474;46.510;6.686;2024-01-16T05:18:55;95774.47;;;0.44;100.00
57644;BME280;43474;46.510;6.686;2024-01-16T05:21:21;95792.94;;;0.49;100.00
57644;BME280;43474;46.510;6.686;2024-01-16T05:23:46;95773.53;;;0.52;100.00
57644;BME280;43474;46.510;6.686;2024-01-16T05:26:12;95769.38;;;0.58;100.00
57644;BME280;43474;46.510;6.686;2024-01-16T05:28:39;95706.03;;;0.08;100.00
57644;BME280;43474;46.510;6.686;2024-01-16T05:31:05;95781.72;;;0.49;100.00
57644;BME280;43474;46.510;6.686;2024-01-16T05:33:31;95715.63;;;0.29;100.00
57644;BME280;43474;46.510;6.686;2024-01-16T05:35:58;95720.72;;;0.43;100.00
57644;BME280;43474;46.510;6.686;2024-01-16T05:38:23;95714.84;;;0.35;100.00
57644;BME280;43474;46.510;6.686;2024-01-16T05:40:49;95740.00;;;0.49;100.00
57644;BME280;43474;46.510;6.686;2024-01-16T05:43:15;95722.31;;;0.38;100.00
57644;BME280;43474;46.510;6.686;2024-01-16T05:45:41;95714.78;;;0.21;100.00
57644;BME280;43474;46.510;6.686;2024-01-16T05:48:06;95689.81;;;0.06;100.00
57644;BME280;43474;46.510;6.686;2024-01-16T05:50:35;95705.47;;;0.12;100.00
57644;BME280;43474;46.510;6.686;2024-01-16T05:53:01;95682.00;;;0.06;100.00
57644;BME280;43474;46.510;6.686;2024-01-16T05:55:27;95735.47;;;0.30;100.00
57644;BME280;43474;46.510;6.686;2024-01-16T05:57:52;95698.56;;;0.26;100.00
57644;BME280;43474;46.510;6.686;2024-01-16T06:00:19;95712.31;;;0.41;100.00
57644;BME280;43474;46.510;6.686;2024-01-16T06:02:47;95746.44;;;0.46;100.00
57644;BME280;43474;46.510;6.686;2024-01-16T06:05:13;95704.16;;;0.23;100.00
57644;BME280;43474;46.510;6.686;2024-01-16T06:07:39;95741.91;;;0.34;100.00
57644;BME280;43474;46.510;6.686;2024-01-16T06:10:06;95728.84;;;0.27;100.00
57644;BME280;43474;46.510;6.686;2024-01-16T06:12:32;95709.16;;;0.24;100.00
57644;BME280;43474;46.510;6.686;2024-01-16T06:14:58;95734.28;;;0.32;100.00
57644;BME280;43474;46.510;6.686;2024-01-16T06:17:47;95694.97;;;0.27;100.00
57644;BME280;43474;46.510;6.686;2024-01-16T06:20:23;95754.84;;;0.76;100.00
57644;BME280;43474;46.510;6.686;2024-01-16T06:22:54;95684.75;;;0.25;100.00
57644;BME280;43474;46.510;6.686;2024-01-16T06:25:31;95743.78;;;0.74;100.00
57644;BME280;43474;46.510;6.686;2024-01-16T06:27:58;95677.19;;;0.37;100.00
57644;BME280;43474;46.510;6.686;2024-01-16T06:30:29;95715.81;;;0.55;100.00
57644;BME280;43474;46.510;6.686;2024-01-16T06:33:18;95680.50;;;0.24;100.00
57644;BME280;43474;46.510;6.686;2024-01-16T06:35:47;95738.06;;;0.58;100.00
57644;BME280;43474;46.510;6.686;2024-01-16T06:38:13;95691.38;;;0.28;100.00
57644;BME280;43474;46.510;6.686;2024-01-16T06:40:39;95677.31;;;0.22;100.00
57644;BME280;43474;46.510;6.686;2024-01-16T06:43:04;95725.53;;;0.74;100.00
57644;BME280;43474;46.510;6.686;2024-01-16T06:45:31;95741.25;;;0.81;100.00
57644;BME280;43474;46.510;6.686;2024-01-16T06:47:57;95692.63;;;0.73;100.00
57644;BME280;43474;46.510;6.686;2024-01-16T06:50:22;95746.91;;;0.91;100.00
57644;BME280;43474;46.510;6.686;2024-01-16T06:52:48;95740.34;;;1.02;100.00
57644;BME280;43474;46.510;6.686;2024-01-16T06:55:14;95697.13;;;0.86;100.00
57644;BME280;43474;46.510;6.686;2024-01-16T06:57:39;95732.59;;;1.15;100.00
57644;BME280;43474;46.510;6.686;2024-01-16T07:00:06;95745.06;;;1.26;100.00
57644;BME280;43474;46.510;6.686;2024-01-16T07:02:32;95701.34;;;0.87;100.00
57644;BME280;43474;46.510;6.686;2024-01-16T07:04:59;95721.94;;;1.10;100.00
57644;BME280;43474;46.510;6.686;2024-01-16T07:07:25;95748.63;;;1.12;100.00
57644;BME280;43474;46.510;6.686;2024-01-16T07:09:51;95705.69;;;0.73;100.00
57644;BME280;43474;46.510;6.686;2024-01-16T07:12:16;95685.81;;;0.72;100.00
57644;BME280;43474;46.510;6.686;2024-01-16T07:14:42;95762.09;;;1.16;100.00
57644;BME280;43474;46.510;6.686;2024-01-16T07:17:07;95758.69;;;1.15;100.00
57644;BME280;43474;46.510;6.686;2024-01-16T07:19:33;95763.44;;;1.05;100.00
57644;BME280;43474;46.510;6.686;2024-01-16T07:21:59;95769.47;;;1.06;100.00
57644;BME280;43474;46.510;6.686;2024-01-16T07:24:24;95762.88;;;1.10;100.00
57644;BME280;43474;46.510;6.686;2024-01-16T07:26:50;95756.09;;;1.22;100.00
57644;BME280;43474;46.510;6.686;2024-01-16T07:29:16;95774.56;;;1.20;100.00
57644;BME280;43474;46.510;6.686;2024-01-16T07:31:41;95757.44;;;1.11;100.00
57644;BME280;43474;46.510;6.686;2024-01-16T07:34:07;95762.56;;;1.39;100.00
57644;BME280;43474;46.510;6.686;2024-01-16T07:36:33;95761.88;;;1.17;100.00
57644;BME280;43474;46.510;6.686;2024-01-16T07:38:58;95763.91;;;1.22;100.00
57644;BME280;43474;46.510;6.686;2024-01-16T07:41:24;95757.69;;;1.23;100.00
57644;BME280;43474;46.510;6.686;2024-01-16T07:43:50;95727.88;;;0.97;100.00
57644;BME280;43474;46.510;6.686;2024-01-16T07:46:15;95771.28;;;1.12;100.00
57644;BME280;43474;46.510;6.686;2024-01-16T07:48:42;95758.81;;;1.07;100.00
57644;BME280;43474;46.510;6.686;2024-01-16T07:51:07;95733.63;;;0.86;100.00
57644;BME280;43474;46.510;6.686;2024-01-16T07:53:33;95750.78;;;1.02;100.00
57644;BME280;43474;46.510;6.686;2024-01-16T07:55:59;95734.91;;;0.97;100.00
57644;BME280;43474;46.510;6.686;2024-01-16T07:58:25;95784.41;;;1.25;100.00
57644;BME280;43474;46.510;6.686;2024-01-16T08:00:50;95772.34;;;1.24;100.00
57644;BME280;43474;46.510;6.686;2024-01-16T08:03:16;95730.09;;;1.00;100.00
57644;BME280;43474;46.510;6.686;2024-01-16T08:05:42;95754.72;;;1.33;100.00
57644;BME280;43474;46.510;6.686;2024-01-16T08:08:08;95756.16;;;1.35;100.00
57644;BME280;43474;46.510;6.686;2024-01-16T08:10:35;95752.97;;;1.46;100.00
57644;BME280;43474;46.510;6.686;2024-01-16T08:13:01;95780.16;;;1.65;100.00
57644;BME280;43474;46.510;6.686;2024-01-16T08:15:27;95754.22;;;1.57;100.00
57644;BME280;43474;46.510;6.686;2024-01-16T08:17:52;95784.81;;;1.83;100.00
57644;BME280;43474;46.510;6.686;2024-01-16T08:20:18;95796.91;;;1.97;100.00
57644;BME280;43474;46.510;6.686;2024-01-16T08:22:46;95729.16;;;1.69;100.00
57644;BME280;43474;46.510;6.686;2024-01-16T08:25:12;95759.72;;;1.95;100.00
57644;BME280;43474;46.510;6.686;2024-01-16T08:27:39;95788.25;;;2.03;100.00
57644;BME280;43474;46.510;6.686;2024-01-16T08:30:05;95794.53;;;2.09;100.00
57644;BME280;43474;46.510;6.686;2024-01-16T08:32:32;95757.13;;;1.95;100.00
57644;BME280;43474;46.510;6.686;2024-01-16T08:34:58;95801.16;;;2.18;100.00
57644;BME280;43474;46.510;6.686;2024-01-16T08:37:24;95784.03;;;1.89;100.00
57644;BME280;43474;46.510;6.686;2024-01-16T08:39:51;95752.44;;;1.77;100.00
57644;BME280;43474;46.510;6.686;2024-01-16T08:42:17;95734.16;;;1.71;100.00
57644;BME280;43474;46.510;6.686;2024-01-16T08:44:43;95791.28;;;2.14;100.00
57644;BME280;43474;46.510;6.686;2024-01-16T08:47:09;95765.97;;;2.01;100.00
57644;BME280;43474;46.510;6.686;2024-01-16T08:49:35;95732.41;;;2.04;100.00
57644;BME280;43474;46.510;6.686;2024-01-16T08:52:01;95759.53;;;2.43;100.00
57644;BME280;43474;46.510;6.686;2024-01-16T08:54:28;95778.06;;;2.75;100.00
57644;BME280;43474;46.510;6.686;2024-01-16T08:56:54;95763.38;;;2.34;100.00
57644;BME280;43474;46.510;6.686;2024-01-16T08:59:37;95719.31;;;2.18;100.00
57644;BME280;43474;46.510;6.686;2024-01-16T09:02:07;95731.41;;;2.25;100.00
57644;BME280;43474;46.510;6.686;2024-01-16T09:04:33;95770.81;;;2.50;100.00
57644;BME280;43474;46.510;6.686;2024-01-16T09:07:01;95772.03;;;2.41;100.00
57644;BME280;43474;46.510;6.686;2024-01-16T09:09:38;95723.97;;;2.09;100.00
57644;BME280;43474;46.510;6.686;2024-01-16T09:12:09;95804.00;;;2.76;100.00
57644;BME280;43474;46.510;6.686;2024-01-16T09:15:00;95736.84;;;2.30;100.00
57644;BME280;43474;46.510;6.686;2024-01-16T09:17:27;95727.59;;;2.35;100.00
57644;BME280;43474;46.510;6.686;2024-01-16T09:19:52;95787.09;;;2.72;100.00
57644;BME280;43474;46.510;6.686;2024-01-16T09:22:21;95742.28;;;2.49;100.00
57644;BME280;43474;46.510;6.686;2024-01-16T09:24:47;95730.19;;;2.41;100.00
57644;BME280;43474;46.510;6.686;2024-01-16T09:27:13;95769.19;;;2.76;100.00
57644;BME280;43474;46.510;6.686;2024-01-16T09:29:42;95753.84;;;2.99;100.00
57644;BME280;43474;46.510;6.686;2024-01-16T09:32:19;95746.56;;;3.08;100.00
57644;BME280;43474;46.510;6.686;2024-01-16T09:35:04;95723.09;;;2.81;100.00
57644;BME280;43474;46.510;6.686;2024-01-16T09:37:35;95734.16;;;2.83;100.00
57644;BME280;43474;46.510;6.686;2024-01-16T09:40:01;95740.19;;;2.91;100.00
57644;BME280;43474;46.510;6.686;2024-01-16T09:42:29;95796.03;;;3.36;100.00
57644;BME280;43474;46.510;6.686;2024-01-16T09:45:01;95737.34;;;2.99;100.00
57644;BME280;43474;46.510;6.686;2024-01-16T09:47:34;95747.41;;;2.95;100.00
57644;BME280;43474;46.510;6.686;2024-01-16T09:50:03;95791.25;;;3.13;100.00
57644;BME280;43474;46.510;6.686;2024-01-16T09:52:30;95751.16;;;3.26;100.00
57644;BME280;43474;46.510;6.686;2024-01-16T09:54:59;95778.19;;;3.65;100.00
57644;BME280;43474;46.510;6.686;2024-01-16T09:57:31;95755.53;;;3.83;100.00
57644;BME280;43474;46.510;6.686;2024-01-16T10:00:11;95758.81;;;3.72;96.36
57644;BME280;43474;46.510;6.686;2024-01-16T10:02:41;95748.44;;;3.91;99.16
57644;BME280;43474;46.510;6.686;2024-01-16T10:05:12;95804.38;;;4.41;99.71
57644;BME280;43474;46.510;6.686;2024-01-16T10:07:39;95776.84;;;4.25;100.00
57644;BME280;43474;46.510;6.686;2024-01-16T10:10:06;95795.53;;;4.35;100.00
57644;BME280;43474;46.510;6.686;2024-01-16T10:12:33;95786.81;;;4.41;100.00
57644;BME280;43474;46.510;6.686;2024-01-16T10:14:59;95715.56;;;4.20;100.00
57644;BME280;43474;46.510;6.686;2024-01-16T10:17:42;95752.66;;;4.73;100.00
57644;BME280;43474;46.510;6.686;2024-01-16T10:20:10;95775.69;;;4.71;98.56
57644;BME280;43474;46.510;6.686;2024-01-16T10:22:53;95781.88;;;4.52;99.01
57644;BME280;43474;46.510;6.686;2024-01-16T10:25:19;95763.78;;;4.19;100.00
57644;BME280;43474;46.510;6.686;2024-01-16T10:27:47;95759.97;;;4.89;100.00
57644;BME280;43474;46.510;6.686;2024-01-16T10:30:12;95741.13;;;4.74;93.99
57644;BME280;43474;46.510;6.686;2024-01-16T10:32:42;95720.94;;;5.11;94.19
57644;BME280;43474;46.510;6.686;2024-01-16T10:35:12;95781.72;;;6.72;91.43
57644;BME280;43474;46.510;6.686;2024-01-16T10:37:48;95746.06;;;6.46;88.31
57644;BME280;43474;46.510;6.686;2024-01-16T10:40:19;95765.75;;;6.02;89.53
57644;BME280;43474;46.510;6.686;2024-01-16T10:42:46;95745.28;;;5.55;91.39
57644;BME280;43474;46.510;6.686;2024-01-16T10:45:18;95735.53;;;5.62;93.99
57644;BME280;43474;46.510;6.686;2024-01-16T10:47:46;95714.22;;;5.82;91.70
57644;BME280;43474;46.510;6.686;2024-01-16T10:50:15;95708.72;;;6.02;92.63
57644;BME280;43474;46.510;6.686;2024-01-16T10:53:06;95740.16;;;6.74;86.86
57644;BME280;43474;46.510;6.686;2024-01-16T10:55:43;95731.22;;;6.63;84.27
57644;BME280;43474;46.510;6.686;2024-01-16T10:58:09;95700.88;;;6.49;83.60
57644;BME280;43474;46.510;6.686;2024-01-16T11:00:38;95707.19;;;6.83;86.13
57644;BME280;43474;46.510;6.686;2024-01-16T11:03:11;95731.63;;;6.25;83.42
57644;BME280;43474;46.510;6.686;2024-01-16T11:05:44;95729.78;;;6.14;85.96
57644;BME280;43474;46.510;6.686;2024-01-16T11:08:12;95712.84;;;5.80;88.78
57644;BME280;43474;46.510;6.686;2024-01-16T11:10:39;95696.13;;;5.44;85.89
57644;BME280;43474;46.510;6.686;2024-01-16T11:13:06;95737.25;;;5.68;88.54
57644;BME280;43474;46.510;6.686;2024-01-16T11:15:32;95766.16;;;5.68;84.91
57644;BME280;43474;46.510;6.686;2024-01-16T11:18:04;95701.78;;;5.89;85.09
57644;BME280;43474;46.510;6.686;2024-01-16T11:20:37;95705.00;;;6.33;84.10
57644;BME280;43474;46.510;6.686;2024-01-16T11:23:13;95708.34;;;5.99;85.55
57644;BME280;43474;46.510;6.686;2024-01-16T11:25:39;95701.66;;;5.84;83.66
57644;BME280;43474;46.510;6.686;2024-01-16T11:28:14;95729.81;;;6.96;81.35
57644;BME280;43474;46.510;6.686;2024-01-16T11:30:43;95720.47;;;6.77;79.36
57644;BME280;43474;46.510;6.686;2024-01-16T11:36:02;95733.03;;;6.51;80.89
57644;BME280;43474;46.510;6.686;2024-01-16T11:38:32;95685.41;;;6.76;83.52
57644;BME280;43474;46.510;6.686;2024-01-16T11:41:03;95740.84;;;6.69;82.13
57644;BME280;43474;46.510;6.686;2024-01-16T11:46:29;95706.50;;;5.69;82.77
57644;BME280;43474;46.510;6.686;2024-01-16T11:49:21;95676.25;;;6.08;80.78
57644;BME280;43474;46.510;6.686;2024-01-16T11:51:47;95675.56;;;6.25;79.01
57644;BME280;43474;46.510;6.686;2024-01-16T11:54:47;95686.47;;;6.87;79.67
57644;BME280;43474;46.510;6.686;2024-01-16T11:57:43;95726.63;;;7.58;78.07
57644;BME280;43474;46.510;6.686;2024-01-16T12:00:19;95714.81;;;7.89;74.05
57644;BME280;43474;46.510;6.686;2024-01-16T12:02:57;95683.63;;;7.29;76.49
57644;BME280;43474;46.510;6.686;2024-01-16T12:05:33;95646.50;;;6.78;77.70
57644;BME280;43474;46.510;6.686;2024-01-16T12:07:59;95705.47;;;6.54;79.83
57644;BME280;43474;46.510;6.686;2024-01-16T12:10:31;95626.78;;;5.87;80.73
57644;BME280;43474;46.510;6.686;2024-01-16T12:13:03;95667.03;;;5.87;83.37
57644;BME280;43474;46.510;6.686;2024-01-16T12:15:41;95642.59;;;5.99;83.81
57644;BME280;43474;46.510;6.686;2024-01-16T12:18:18;95632.91;;;6.22;80.51
57644;BME280;43474;46.510;6.686;2024-01-16T12:20:44;95586.66;;;5.91;80.88
57644;BME280;43474;46.510;6.686;2024-01-16T12:23:13;95636.84;;;5.90;81.34
57644;BME280;43474;46.510;6.686;2024-01-16T12:25:39;95649.94;;;6.08;81.73
57644;BME280;43474;46.510;6.686;2024-01-16T12:28:06;95649.94;;;6.20;81.96
57644;BME280;43474;46.510;6.686;2024-01-16T12:30:34;95653.50;;;6.14;81.67
57644;BME280;43474;46.510;6.686;2024-01-16T12:33:07;95640.69;;;6.17;83.13
57644;BME280;43474;46.510;6.686;2024-01-16T12:35:43;95645.19;;;5.57;81.86
57644;BME280;43474;46.510;6.686;2024-01-16T12:38:12;95645.41;;;5.43;85.83
57644;BME280;43474;46.510;6.686;2024-01-16T12:40:47;95647.00;;;5.44;85.42
57644;BME280;43474;46.510;6.686;2024-01-16T12:43:16;95631.75;;;6.18;83.79
57644;BME280;43474;46.510;6.686;2024-01-16T12:45:42;95630.28;;;6.22;82.23
57644;BME280;43474;46.510;6.686;2024-01-16T12:48:10;95621.69;;;6.39;84.23
57644;BME280;43474;46.510;6.686;2024-01-16T12:50:36;95623.19;;;6.23;83.63
57644;BME280;43474;46.510;6.686;2024-01-16T12:55:38;95613.94;;;6.96;83.99
57644;BME280;43474;46.510;6.686;2024-01-16T12:58:21;95614.91;;;7.47;80.44
57644;BME280;43474;46.510;6.686;2024-01-16T13:00:51;95601.19;;;7.62;77.17
57644;BME280;43474;46.510;6.686;2024-01-16T13:03:21;95594.41;;;7.66;79.72
57644;BME280;43474;46.510;6.686;2024-01-16T13:05:55;95598.25;;;8.09;75.87
57644;BME280;43474;46.510;6.686;2024-01-16T13:08:22;95560.63;;;7.34;75.70
57644;BME280;43474;46.510;6.686;2024-01-16T13:11:03;95588.38;;;7.37;77.35
57644;BME280;43474;46.510;6.686;2024-01-16T13:13:29;95571.00;;;6.95;78.77
57644;BME280;43474;46.510;6.686;2024-01-16T13:15:55;95576.72;;;7.21;78.39
57644;BME280;43474;46.510;6.686;2024-01-16T13:18:28;95572.78;;;7.35;78.74